Terminal Aerodrome Forecast
Issued by NWS Central Illinois

Home | Current Version | Previous Version | Text Only | Print | Product List | Glossary On
Versions: 1 2 3 4 5 6 7 8 9 10 11 12 13 14
286
FTUS43 KILX 081120
TAFPIA
TAF
KPIA 081120Z 0812/0912 31014G20KT P6SM VCSH OVC025
      TEMPO 0813/0815 2SM -SHSN BR OVC015
     FM081800 31015G25KT P6SM VCSH OVC020
     FM090000 31015KT P6SM VCSH OVC015=

USA.gov is the U.S. government's official web portal to all federal, state and local government web resources and services.